Time;durP1;ratioP1;P1;durP2;ratioP2;P2;SDS_P1;SDS_P2;PMS_P1;PMS_P2;Temp;Humidity;BMP_temperature;BMP_pressure;BME280_temperature;BME280_humidity;BME280_pressure;Samples;Min_cycle;Max_cycle;Signal;HPM_P1;HPM_P2
2023/10/22 00:00:12;;;;;;;;;;;16.60;99.90;;;;;;4964578;28;19925;-71
2023/10/22 00:02:38;;;;;;;;;;;16.50;99.90;;;;;;4967072;28;20284;-71
2023/10/22 00:05:04;;;;;;;;;;;16.60;99.90;;;;;;4948333;28;20344;-71
2023/10/22 00:07:30;;;;;;;;;;;16.60;99.90;;;;;;4967779;28;19910;-72
2023/10/22 00:09:56;;;;;;;;;;;16.60;99.90;;;;;;4963384;28;20373;-72
2023/10/22 00:12:21;;;;;;;;;;;16.60;99.90;;;;;;4960781;28;20061;-71
2023/10/22 00:14:47;;;;;;;;;;;16.60;99.90;;;;;;4960858;28;20611;-71
2023/10/22 00:17:13;;;;;;;;;;;16.60;99.90;;;;;;4963389;28;19926;-71
2023/10/22 00:19:38;;;;;;;;;;;16.50;99.90;;;;;;4960087;28;20160;-71
2023/10/22 00:22:04;;;;;;;;;;;16.50;99.90;;;;;;4963137;28;19960;-71
2023/10/22 00:24:31;;;;;;;;;;;16.50;99.90;;;;;;4957871;28;20262;-71
2023/10/22 00:26:57;;;;;;;;;;;16.50;99.90;;;;;;4962270;28;20413;-72
2023/10/22 00:29:23;;;;;;;;;;;16.50;99.90;;;;;;4963376;28;19918;-70
2023/10/22 00:31:49;;;;;;;;;;;16.50;99.90;;;;;;4964524;28;19996;-71
2023/10/22 00:34:15;;;;;;;;;;;16.40;99.90;;;;;;4966267;28;19918;-71
2023/10/22 00:36:41;;;;;;;;;;;16.40;99.90;;;;;;4960227;28;19914;-70
2023/10/22 00:39:07;;;;;;;;;;;16.50;99.90;;;;;;4964700;28;19949;-70
2023/10/22 00:41:32;;;;;;;;;;;16.40;99.90;;;;;;4957265;28;19953;-71
2023/10/22 00:43:58;;;;;;;;;;;16.40;99.90;;;;;;4963109;28;19918;-71
2023/10/22 00:46:24;;;;;;;;;;;16.40;99.90;;;;;;4961238;28;20484;-70
2023/10/22 00:48:50;;;;;;;;;;;16.40;99.90;;;;;;4965373;28;19914;-71
2023/10/22 00:51:17;;;;;;;;;;;16.30;99.90;;;;;;4963345;28;20405;-71
2023/10/22 00:53:43;;;;;;;;;;;16.30;99.90;;;;;;4960660;28;19906;-71
2023/10/22 00:56:09;;;;;;;;;;;16.30;99.90;;;;;;4961653;28;19922;-71
2023/10/22 00:58:35;;;;;;;;;;;16.20;99.90;;;;;;4957102;28;19914;-71
2023/10/22 01:01:05;;;;;;;;;;;16.20;99.90;;;;;;4966324;28;20373;-71
2023/10/22 01:03:33;;;;;;;;;;;16.20;99.90;;;;;;4969227;28;20598;-71
2023/10/22 01:05:59;;;;;;;;;;;16.20;99.90;;;;;;4965511;28;20028;-71
2023/10/22 01:08:24;;;;;;;;;;;16.10;99.90;;;;;;4956972;28;20338;-72
2023/10/22 01:10:50;;;;;;;;;;;16.10;99.90;;;;;;4968303;28;19910;-72
2023/10/22 01:13:16;;;;;;;;;;;16.10;99.90;;;;;;4960395;28;20368;-70
2023/10/22 01:15:41;;;;;;;;;;;16.00;99.90;;;;;;4957651;28;19918;-71
2023/10/22 01:18:07;;;;;;;;;;;16.00;99.90;;;;;;4971490;28;19929;-71
2023/10/22 01:20:33;;;;;;;;;;;16.00;99.90;;;;;;4962088;28;20381;-70
2023/10/22 01:22:59;;;;;;;;;;;16.00;99.90;;;;;;4965332;28;20655;-70
2023/10/22 01:25:25;;;;;;;;;;;15.90;99.90;;;;;;4965934;28;19997;-70
2023/10/22 01:27:50;;;;;;;;;;;16.00;99.90;;;;;;4965931;28;20001;-70
2023/10/22 01:30:16;;;;;;;;;;;15.90;99.90;;;;;;4960470;28;20316;-71
2023/10/22 01:32:41;;;;;;;;;;;16.00;99.90;;;;;;4972334;28;20631;-71
2023/10/22 01:35:08;;;;;;;;;;;15.90;99.90;;;;;;4966915;28;20400;-71
2023/10/22 01:37:34;;;;;;;;;;;15.80;99.90;;;;;;4967104;28;19917;-71
2023/10/22 01:40:00;;;;;;;;;;;15.80;99.90;;;;;;4963725;28;20329;-71
2023/10/22 01:42:25;;;;;;;;;;;15.70;99.90;;;;;;4962980;28;19910;-71
2023/10/22 01:44:51;;;;;;;;;;;15.60;99.90;;;;;;4966889;28;20028;-71
2023/10/22 01:47:17;;;;;;;;;;;15.60;99.90;;;;;;4966092;28;19917;-71
2023/10/22 01:49:42;;;;;;;;;;;15.50;99.90;;;;;;4967667;28;19911;-71
2023/10/22 01:52:08;;;;;;;;;;;15.50;99.90;;;;;;4963550;28;19914;-72
2023/10/22 01:54:34;;;;;;;;;;;15.40;99.90;;;;;;4963693;28;19914;-71
2023/10/22 01:57:00;;;;;;;;;;;15.40;99.90;;;;;;4960695;28;20365;-70
2023/10/22 01:59:25;;;;;;;;;;;15.30;99.90;;;;;;4964587;28;20235;-71
2023/10/22 02:01:51;;;;;;;;;;;15.30;99.90;;;;;;4970405;28;20087;-71
2023/10/22 02:04:16;;;;;;;;;;;15.30;99.90;;;;;;4969296;28;19910;-71
2023/10/22 02:06:43;;;;;;;;;;;15.20;99.90;;;;;;4962393;28;19945;-71
2023/10/22 02:09:08;;;;;;;;;;;15.20;99.90;;;;;;4970444;28;19914;-70
2023/10/22 02:11:34;;;;;;;;;;;15.30;99.90;;;;;;4962017;28;19914;-71
2023/10/22 02:13:59;;;;;;;;;;;15.30;99.90;;;;;;4966968;28;19914;-71
2023/10/22 02:16:25;;;;;;;;;;;15.30;99.90;;;;;;4966050;28;20287;-71
2023/10/22 02:18:51;;;;;;;;;;;15.30;99.90;;;;;;4967288;28;20759;-71
2023/10/22 02:21:16;;;;;;;;;;;15.30;99.90;;;;;;4964634;28;19917;-71
2023/10/22 02:23:42;;;;;;;;;;;15.30;99.90;;;;;;4964682;28;20343;-71
2023/10/22 02:26:07;;;;;;;;;;;15.30;99.90;;;;;;4961506;28;19950;-70
2023/10/22 02:28:33;;;;;;;;;;;15.30;99.90;;;;;;4964113;28;19906;-70
2023/10/22 02:30:59;;;;;;;;;;;15.30;99.90;;;;;;4962810;28;19914;-72
2023/10/22 02:33:24;;;;;;;;;;;15.40;99.90;;;;;;4970232;28;19914;-70
2023/10/22 02:35:51;;;;;;;;;;;15.30;99.90;;;;;;4966445;28;19913;-72
2023/10/22 02:38:17;;;;;;;;;;;15.30;99.90;;;;;;4961024;28;19916;-71
2023/10/22 02:40:43;;;;;;;;;;;15.30;99.90;;;;;;4961238;28;19921;-71
2023/10/22 02:43:10;;;;;;;;;;;15.30;99.90;;;;;;4961765;28;19914;-70
2023/10/22 02:45:35;;;;;;;;;;;15.30;99.90;;;;;;4961474;28;19921;-71
2023/10/22 02:48:01;;;;;;;;;;;15.30;99.90;;;;;;4966154;28;20392;-71
2023/10/22 02:50:27;;;;;;;;;;;15.30;99.90;;;;;;4958189;28;19910;-70
2023/10/22 02:52:53;;;;;;;;;;;15.30;99.90;;;;;;4963323;28;20533;-72
2023/10/22 02:55:19;;;;;;;;;;;15.30;99.90;;;;;;4962651;28;19914;-71
2023/10/22 02:57:46;;;;;;;;;;;15.20;99.90;;;;;;4960362;28;19944;-71
2023/10/22 03:00:13;;;;;;;;;;;15.20;99.90;;;;;;4963336;28;19918;-71
2023/10/22 03:02:39;;;;;;;;;;;15.20;99.90;;;;;;4968981;28;20004;-71
2023/10/22 03:05:05;;;;;;;;;;;15.20;99.90;;;;;;4968164;28;19997;-71
2023/10/22 03:07:30;;;;;;;;;;;15.20;99.90;;;;;;4966650;28;20009;-71
2023/10/22 03:09:56;;;;;;;;;;;15.20;99.90;;;;;;4962906;28;20407;-71
2023/10/22 03:12:21;;;;;;;;;;;15.20;99.90;;;;;;4962456;28;20136;-71
2023/10/22 03:14:49;;;;;;;;;;;15.10;99.90;;;;;;4968777;28;19920;-71
2023/10/22 03:17:16;;;;;;;;;;;15.10;99.90;;;;;;4963316;28;19918;-71
2023/10/22 03:19:42;;;;;;;;;;;15.10;99.90;;;;;;4965691;28;19910;-71
2023/10/22 03:22:08;;;;;;;;;;;15.20;99.90;;;;;;4963430;28;20399;-70
2023/10/22 03:24:34;;;;;;;;;;;15.10;99.90;;;;;;4964036;28;19989;-71
2023/10/22 03:27:00;;;;;;;;;;;15.10;99.90;;;;;;4961393;28;19922;-71
2023/10/22 03:29:26;;;;;;;;;;;15.10;99.90;;;;;;4962453;28;19918;-70
2023/10/22 03:31:52;;;;;;;;;;;15.10;99.90;;;;;;4968427;28;19913;-70
2023/10/22 03:34:17;;;;;;;;;;;15.20;99.90;;;;;;4964669;28;19917;-70
2023/10/22 03:36:44;;;;;;;;;;;15.10;99.90;;;;;;4963135;28;19922;-71
2023/10/22 03:39:10;;;;;;;;;;;15.10;99.90;;;;;;4963434;28;19916;-71
2023/10/22 03:41:36;;;;;;;;;;;15.10;99.90;;;;;;4959901;28;19914;-71
2023/10/22 03:44:01;;;;;;;;;;;15.10;99.90;;;;;;4964268;28;19949;-70
2023/10/22 03:46:27;;;;;;;;;;;15.10;99.90;;;;;;4963697;28;19969;-70
2023/10/22 03:48:54;;;;;;;;;;;15.10;99.90;;;;;;4963542;28;19940;-71
2023/10/22 03:51:19;;;;;;;;;;;15.00;99.90;;;;;;4958730;28;19910;-71
2023/10/22 03:53:46;;;;;;;;;;;15.00;99.90;;;;;;4962803;28;19936;-70
2023/10/22 03:56:11;;;;;;;;;;;15.00;99.90;;;;;;4957437;28;19921;-70
2023/10/22 03:58:37;;;;;;;;;;;15.00;99.90;;;;;;4962926;28;19910;-71
2023/10/22 04:01:02;;;;;;;;;;;15.00;99.90;;;;;;4959575;28;19922;-71
2023/10/22 04:03:28;;;;;;;;;;;15.00;99.90;;;;;;4970964;28;19957;-71
2023/10/22 04:05:55;;;;;;;;;;;15.00;99.90;;;;;;4965550;28;19910;-70
2023/10/22 04:08:21;;;;;;;;;;;15.00;99.90;;;;;;4959735;28;20342;-71
2023/10/22 04:10:46;;;;;;;;;;;15.00;99.90;;;;;;4960781;28;20000;-71
2023/10/22 04:13:12;;;;;;;;;;;15.00;99.90;;;;;;4960991;28;19918;-70
2023/10/22 04:15:39;;;;;;;;;;;15.00;99.90;;;;;;4965143;28;19918;-70
2023/10/22 04:18:04;;;;;;;;;;;15.00;99.90;;;;;;4962262;28;19914;-70
2023/10/22 04:20:33;;;;;;;;;;;15.00;99.90;;;;;;4962961;28;19921;-70
2023/10/22 04:22:59;;;;;;;;;;;15.00;99.90;;;;;;4961998;28;19914;-70
2023/10/22 04:25:25;;;;;;;;;;;15.00;99.90;;;;;;4961639;28;19910;-71
2023/10/22 04:27:51;;;;;;;;;;;15.00;99.90;;;;;;4963558;28;19937;-71
2023/10/22 04:30:16;;;;;;;;;;;15.00;99.90;;;;;;4958039;28;20383;-71
2023/10/22 04:32:42;;;;;;;;;;;15.00;99.90;;;;;;4969039;28;19921;-71
2023/10/22 04:35:08;;;;;;;;;;;14.90;99.90;;;;;;4964766;28;19946;-70
2023/10/22 04:37:33;;;;;;;;;;;14.90;99.90;;;;;;4962353;28;20554;-71
2023/10/22 04:39:59;;;;;;;;;;;14.90;99.90;;;;;;4963824;28;19937;-70
2023/10/22 04:42:25;;;;;;;;;;;14.90;99.90;;;;;;4956688;28;20158;-71
2023/10/22 04:44:50;;;;;;;;;;;14.90;99.90;;;;;;4962232;28;20397;-71
2023/10/22 04:47:16;;;;;;;;;;;14.90;99.90;;;;;;4961514;28;19993;-70
2023/10/22 04:49:44;;;;;;;;;;;14.90;99.90;;;;;;4967328;28;19916;-71
2023/10/22 04:52:10;;;;;;;;;;;14.90;99.90;;;;;;4965232;28;19914;-70
2023/10/22 04:54:36;;;;;;;;;;;14.80;99.90;;;;;;4963861;28;20353;-71
2023/10/22 04:57:05;;;;;;;;;;;14.90;99.90;;;;;;4970329;28;19918;-70
2023/10/22 04:59:30;;;;;;;;;;;14.80;99.90;;;;;;4968492;28;19911;-71
2023/10/22 05:01:56;;;;;;;;;;;14.80;99.90;;;;;;4970865;28;20005;-71
2023/10/22 05:04:21;;;;;;;;;;;14.80;99.90;;;;;;4969518;28;19920;-71
2023/10/22 05:06:47;;;;;;;;;;;14.80;99.90;;;;;;4967599;28;19921;-71
2023/10/22 05:09:12;;;;;;;;;;;14.70;99.90;;;;;;4961533;28;19980;-70
2023/10/22 05:11:38;;;;;;;;;;;14.70;99.90;;;;;;4964806;28;20362;-70
2023/10/22 05:14:03;;;;;;;;;;;14.60;99.90;;;;;;4967743;28;19917;-70
2023/10/22 05:16:29;;;;;;;;;;;14.60;99.90;;;;;;4966729;28;19925;-71
2023/10/22 05:18:54;;;;;;;;;;;14.50;99.90;;;;;;4967984;28;20449;-70
2023/10/22 05:21:20;;;;;;;;;;;14.50;99.90;;;;;;4965157;28;19913;-71
2023/10/22 05:23:46;;;;;;;;;;;14.50;99.90;;;;;;4965630;28;19949;-70
2023/10/22 05:26:12;;;;;;;;;;;14.50;99.90;;;;;;4964457;28;19917;-71
2023/10/22 05:28:38;;;;;;;;;;;14.50;99.90;;;;;;4966955;28;19917;-71
2023/10/22 05:31:14;;;;;;;;;;;14.40;99.90;;;;;;4963892;28;19921;-69
2023/10/22 05:33:43;;;;;;;;;;;14.40;99.90;;;;;;4969597;28;19914;-70
2023/10/22 05:36:15;;;;;;;;;;;14.30;99.90;;;;;;4968841;28;19922;-71
2023/10/22 05:38:41;;;;;;;;;;;14.30;99.90;;;;;;4964182;28;19914;-70
2023/10/22 05:41:07;;;;;;;;;;;14.20;99.90;;;;;;4966936;28;20287;-71
2023/10/22 05:43:32;;;;;;;;;;;14.20;99.90;;;;;;4966089;28;19988;-70
2023/10/22 05:45:58;;;;;;;;;;;14.20;99.90;;;;;;4963585;28;20089;-71
2023/10/22 05:48:23;;;;;;;;;;;14.10;99.90;;;;;;4966939;28;19914;-70
2023/10/22 05:50:50;;;;;;;;;;;14.10;99.90;;;;;;4960800;28;19920;-71
2023/10/22 05:53:16;;;;;;;;;;;14.00;99.90;;;;;;4966391;28;20674;-71
2023/10/22 05:55:41;;;;;;;;;;;14.00;99.90;;;;;;4965799;28;19914;-71
2023/10/22 05:58:07;;;;;;;;;;;14.00;99.90;;;;;;4961768;28;19917;-71
2023/10/22 06:00:32;;;;;;;;;;;14.00;99.90;;;;;;4964703;28;20367;-70
2023/10/22 06:02:58;;;;;;;;;;;14.10;99.90;;;;;;4973897;28;20001;-71
2023/10/22 06:05:24;;;;;;;;;;;14.10;99.90;;;;;;4962458;28;20009;-69
2023/10/22 06:07:52;;;;;;;;;;;14.20;99.90;;;;;;4965783;28;20381;-70
2023/10/22 06:10:17;;;;;;;;;;;14.10;99.90;;;;;;4967830;28;19914;-71
2023/10/22 06:12:43;;;;;;;;;;;14.20;99.90;;;;;;4963618;28;19924;-71
2023/10/22 06:15:09;;;;;;;;;;;14.20;99.90;;;;;;4962907;28;19996;-71
2023/10/22 06:17:34;;;;;;;;;;;14.30;99.90;;;;;;4966034;28;20325;-72
2023/10/22 06:20:00;;;;;;;;;;;14.30;99.90;;;;;;4962569;28;19950;-72
2023/10/22 06:22:26;;;;;;;;;;;14.40;99.90;;;;;;4962517;28;20481;-73
2023/10/22 06:24:51;;;;;;;;;;;14.40;99.90;;;;;;4960294;28;19924;-71
2023/10/22 06:27:17;;;;;;;;;;;14.40;99.90;;;;;;4963865;28;20276;-73
2023/10/22 06:29:47;;;;;;;;;;;14.40;99.90;;;;;;4965685;28;19946;-72
2023/10/22 06:32:12;;;;;;;;;;;14.50;99.90;;;;;;4963224;28;19998;-72
2023/10/22 06:34:38;;;;;;;;;;;14.50;99.90;;;;;;4969317;28;19989;-73
2023/10/22 06:37:03;;;;;;;;;;;14.50;99.90;;;;;;4967852;28;20358;-72
2023/10/22 06:39:29;;;;;;;;;;;14.50;99.90;;;;;;4960866;28;20005;-71
2023/10/22 06:41:54;;;;;;;;;;;14.50;99.90;;;;;;4964182;28;19956;-74
2023/10/22 06:44:21;;;;;;;;;;;14.60;99.90;;;;;;4960878;28;19917;-72
2023/10/22 06:46:46;;;;;;;;;;;14.60;99.90;;;;;;4963312;28;20362;-73
2023/10/22 06:49:12;;;;;;;;;;;14.60;99.90;;;;;;4965366;28;19911;-75
2023/10/22 06:51:38;;;;;;;;;;;14.70;99.90;;;;;;4959962;28;19914;-73
2023/10/22 06:54:05;;;;;;;;;;;14.70;99.90;;;;;;4963295;28;19920;-73
2023/10/22 06:56:31;;;;;;;;;;;14.70;99.90;;;;;;4963197;28;19918;-76
2023/10/22 06:58:56;;;;;;;;;;;14.80;99.90;;;;;;4961903;28;19914;-75
2023/10/22 07:01:22;;;;;;;;;;;14.90;99.90;;;;;;4963011;28;19965;-74
2023/10/22 07:03:48;;;;;;;;;;;14.90;99.90;;;;;;4968056;28;20329;-71
2023/10/22 07:06:14;;;;;;;;;;;14.90;99.90;;;;;;4963002;28;19941;-71
2023/10/22 07:08:40;;;;;;;;;;;14.90;99.90;;;;;;4963444;28;19921;-72
2023/10/22 07:11:06;;;;;;;;;;;15.00;99.90;;;;;;4967264;28;19914;-72
2023/10/22 07:13:31;;;;;;;;;;;14.90;99.90;;;;;;4962610;28;19910;-69
2023/10/22 07:15:57;;;;;;;;;;;14.90;99.90;;;;;;4965810;28;20001;-71
2023/10/22 07:18:23;;;;;;;;;;;14.90;99.90;;;;;;4966651;28;20453;-72
2023/10/22 07:20:49;;;;;;;;;;;14.90;99.90;;;;;;4960043;28;20617;-71
2023/10/22 07:23:15;;;;;;;;;;;14.90;99.90;;;;;;4966220;28;20004;-70
2023/10/22 07:25:40;;;;;;;;;;;15.00;99.90;;;;;;4965866;28;19910;-70
2023/10/22 07:28:06;;;;;;;;;;;15.00;99.90;;;;;;4963117;28;19917;-68
2023/10/22 07:30:32;;;;;;;;;;;15.10;99.90;;;;;;4962026;28;20595;-69
2023/10/22 07:32:57;;;;;;;;;;;15.20;99.90;;;;;;4971612;28;20381;-71
2023/10/22 07:35:23;;;;;;;;;;;15.40;99.90;;;;;;4962914;28;20000;-70
2023/10/22 07:37:48;;;;;;;;;;;15.60;99.90;;;;;;4963222;28;19997;-71
2023/10/22 07:40:14;;;;;;;;;;;15.80;99.90;;;;;;4960492;28;19925;-70
2023/10/22 07:42:48;;;;;;;;;;;16.00;99.90;;;;;;4961161;28;19910;-71
2023/10/22 07:45:14;;;;;;;;;;;16.20;99.90;;;;;;4964328;28;19926;-66
2023/10/22 07:47:39;;;;;;;;;;;17.30;99.90;;;;;;4965420;28;20354;-67
2023/10/22 07:50:06;;;;;;;;;;;18.60;99.90;;;;;;4963385;28;19918;-65
2023/10/22 07:52:32;;;;;;;;;;;19.00;99.90;;;;;;4962350;28;19922;-65
2023/10/22 07:54:57;;;;;;;;;;;18.90;99.90;;;;;;4958254;28;20396;-65
2023/10/22 07:57:25;;;;;;;;;;;18.60;99.90;;;;;;4958762;28;20013;-71
2023/10/22 07:59:50;;;;;;;;;;;18.20;99.90;;;;;;4961214;28;19968;-73
2023/10/22 08:02:16;;;;;;;;;;;17.90;99.90;;;;;;4964296;28;19914;-71
2023/10/22 08:04:41;;;;;;;;;;;17.50;99.90;;;;;;4965643;28;19913;-71
2023/10/22 08:07:08;;;;;;;;;;;17.20;99.90;;;;;;4959076;28;19918;-70
2023/10/22 08:09:34;;;;;;;;;;;16.90;99.90;;;;;;4964935;28;19913;-71
2023/10/22 08:11:59;;;;;;;;;;;16.70;99.90;;;;;;4962726;28;20286;-71
2023/10/22 08:14:25;;;;;;;;;;;16.60;99.90;;;;;;4958127;28;19910;-72
2023/10/22 08:16:50;;;;;;;;;;;16.50;99.90;;;;;;4966138;28;19914;-71
2023/10/22 08:19:16;;;;;;;;;;;16.40;99.90;;;;;;4966575;28;19917;-71
2023/10/22 08:21:41;;;;;;;;;;;16.30;99.90;;;;;;4959649;28;20296;-71
2023/10/22 08:24:07;;;;;;;;;;;16.30;99.90;;;;;;4965246;28;19921;-70
2023/10/22 08:26:33;;;;;;;;;;;16.20;99.90;;;;;;4970290;28;19914;-70
2023/10/22 08:28:59;;;;;;;;;;;16.10;99.90;;;;;;4964455;28;20255;-71
2023/10/22 08:31:24;;;;;;;;;;;16.10;99.90;;;;;;4968526;28;19955;-71
2023/10/22 08:33:50;;;;;;;;;;;16.10;99.90;;;;;;4972713;28;19910;-71
2023/10/22 08:36:15;;;;;;;;;;;16.00;99.90;;;;;;4968667;28;20313;-70
2023/10/22 08:38:41;;;;;;;;;;;16.00;99.90;;;;;;4963441;28;19926;-71
2023/10/22 08:41:13;;;;;;;;;;;16.00;99.90;;;;;;4967443;28;19910;-70
2023/10/22 08:43:41;;;;;;;;;;;16.10;99.90;;;;;;4968610;28;19910;-71
2023/10/22 08:46:06;;;;;;;;;;;16.10;99.90;;;;;;4968134;28;19921;-70
2023/10/22 08:48:32;;;;;;;;;;;16.00;99.90;;;;;;4968126;28;19910;-71
2023/10/22 08:51:00;;;;;;;;;;;16.00;99.90;;;;;;4963693;28;20255;-71
2023/10/22 08:53:26;;;;;;;;;;;16.00;99.90;;;;;;4961075;28;19922;-71
2023/10/22 08:55:53;;;;;;;;;;;16.00;99.90;;;;;;4965182;28;20013;-71
2023/10/22 08:58:20;;;;;;;;;;;16.00;99.90;;;;;;4962762;28;20042;-71
2023/10/22 09:00:46;;;;;;;;;;;16.00;99.90;;;;;;4965126;28;19922;-71
2023/10/22 09:03:13;;;;;;;;;;;16.00;99.90;;;;;;4969687;28;19920;-71
2023/10/22 09:05:39;;;;;;;;;;;16.00;99.90;;;;;;4968249;28;19914;-71
2023/10/22 09:08:05;;;;;;;;;;;16.00;99.90;;;;;;4965806;28;19911;-71
2023/10/22 09:10:31;;;;;;;;;;;16.00;99.90;;;;;;4963263;28;20362;-72
2023/10/22 09:13:06;;;;;;;;;;;16.00;99.90;;;;;;4960187;28;19914;-70
2023/10/22 09:15:42;;;;;;;;;;;16.00;99.90;;;;;;4965992;28;19915;-71
2023/10/22 09:18:07;;;;;;;;;;;16.20;99.90;;;;;;4970069;28;19961;-70
2023/10/22 09:20:36;;;;;;;;;;;16.20;99.90;;;;;;4966230;28;19977;-71
2023/10/22 09:23:16;;;;;;;;;;;16.30;99.90;;;;;;4968635;28;19990;-70
2023/10/22 09:25:42;;;;;;;;;;;16.20;99.90;;;;;;4969340;28;20372;-71
2023/10/22 09:28:11;;;;;;;;;;;16.20;99.90;;;;;;4965103;28;20008;-72
2023/10/22 09:30:37;;;;;;;;;;;16.30;99.90;;;;;;4964486;28;19949;-70
2023/10/22 09:33:02;;;;;;;;;;;16.30;99.90;;;;;;4973936;28;19936;-71
2023/10/22 09:35:28;;;;;;;;;;;16.40;99.90;;;;;;4968047;28;19921;-71
2023/10/22 09:37:58;;;;;;;;;;;16.50;99.90;;;;;;4958952;28;19910;-70
2023/10/22 09:40:24;;;;;;;;;;;16.50;99.90;;;;;;4963763;28;19914;-72
2023/10/22 09:42:50;;;;;;;;;;;16.50;99.90;;;;;;4962019;28;19920;-74
2023/10/22 09:45:17;;;;;;;;;;;16.40;99.90;;;;;;4966654;28;20016;-73
2023/10/22 09:47:45;;;;;;;;;;;16.40;99.90;;;;;;4965758;28;19910;-70
2023/10/22 09:50:12;;;;;;;;;;;16.30;99.90;;;;;;4964775;28;19921;-72
2023/10/22 09:52:42;;;;;;;;;;;16.20;99.90;;;;;;4966530;28;19965;-72
2023/10/22 09:55:12;;;;;;;;;;;16.10;99.90;;;;;;4965305;28;19921;-72
2023/10/22 09:57:39;;;;;;;;;;;16.10;99.90;;;;;;4964125;28;19945;-70
2023/10/22 10:00:10;;;;;;;;;;;16.10;99.90;;;;;;4968066;28;20362;-71
2023/10/22 10:02:36;;;;;;;;;;;16.20;99.90;;;;;;4968363;28;19914;-71
2023/10/22 10:05:05;;;;;;;;;;;16.20;99.90;;;;;;4970415;28;19917;-73
2023/10/22 10:07:30;;;;;;;;;;;16.40;99.90;;;;;;4958711;28;19917;-71
2023/10/22 10:09:56;;;;;;;;;;;16.50;99.90;;;;;;4960293;28;19918;-72
2023/10/22 10:12:24;;;;;;;;;;;16.60;99.90;;;;;;4965053;28;19918;-72
2023/10/22 10:14:50;;;;;;;;;;;16.60;99.90;;;;;;4965191;28;19914;-72
2023/10/22 10:17:19;;;;;;;;;;;16.60;99.90;;;;;;4967390;28;19918;-72
2023/10/22 10:19:47;;;;;;;;;;;16.70;99.90;;;;;;4964750;28;20005;-72
2023/10/22 10:22:31;;;;;;;;;;;16.70;99.90;;;;;;4962797;28;19910;-71
2023/10/22 10:25:16;;;;;;;;;;;16.70;99.90;;;;;;4963984;28;19954;-71
2023/10/22 10:27:52;;;;;;;;;;;16.80;99.90;;;;;;4963993;28;20282;-72
2023/10/22 10:30:20;;;;;;;;;;;17.00;99.90;;;;;;4965465;28;20426;-72
2023/10/22 10:32:46;;;;;;;;;;;17.00;99.90;;;;;;4970817;28;19920;-72
2023/10/22 10:35:12;;;;;;;;;;;17.10;99.90;;;;;;4969270;28;19914;-72
2023/10/22 10:37:37;;;;;;;;;;;17.20;99.90;;;;;;4963571;28;20322;-72
2023/10/22 10:40:05;;;;;;;;;;;17.30;99.90;;;;;;4967184;28;19933;-72
2023/10/22 10:42:31;;;;;;;;;;;17.40;99.90;;;;;;4956013;28;19914;-71
2023/10/22 10:47:22;;;;;;;;;;;17.70;99.90;;;;;;4964634;28;19922;-71
2023/10/22 10:49:57;;;;;;;;;;;17.90;99.90;;;;;;4959489;28;20337;-71
2023/10/22 10:52:23;;;;;;;;;;;18.10;99.90;;;;;;4963275;28;20771;-71
2023/10/22 10:54:58;;;;;;;;;;;18.40;99.90;;;;;;4964895;28;20101;-72
2023/10/22 10:57:36;;;;;;;;;;;18.50;99.90;;;;;;4958644;28;19941;-71
2023/10/22 11:00:04;;;;;;;;;;;18.60;99.90;;;;;;4964327;28;19986;-71
2023/10/22 11:02:38;;;;;;;;;;;18.80;99.90;;;;;;4961174;28;19910;-71
2023/10/22 11:05:03;;;;;;;;;;;18.90;99.90;;;;;;4968427;28;19917;-71
2023/10/22 11:07:29;;;;;;;;;;;18.80;99.90;;;;;;4959374;28;19914;-72
2023/10/22 11:10:11;;;;;;;;;;;18.90;99.90;;;;;;5096978;27;19912;-71
2023/10/22 11:12:40;;;;;;;;;;;19.10;99.90;;;;;;5092190;28;19912;-72
2023/10/22 11:15:07;;;;;;;;;;;19.30;99.90;;;;;;5094182;28;19912;-72
2023/10/22 11:17:32;;;;;;;;;;;19.50;99.70;;;;;;5094361;28;19919;-72
2023/10/22 11:19:58;;;;;;;;;;;19.50;99.50;;;;;;5090989;28;19912;-73
2023/10/22 11:22:23;;;;;;;;;;;19.50;99.30;;;;;;5095296;28;19943;-72
2023/10/22 11:24:49;;;;;;;;;;;19.50;99.10;;;;;;5093959;28;19987;-72
2023/10/22 11:27:15;;;;;;;;;;;19.50;98.90;;;;;;5093371;28;19934;-72
2023/10/22 11:29:47;;;;;;;;;;;19.50;99.00;;;;;;5088727;28;19912;-74
2023/10/22 11:32:20;;;;;;;;;;;19.60;98.30;;;;;;5093451;28;20019;-75
2023/10/22 11:34:46;;;;;;;;;;;19.50;98.30;;;;;;5098247;28;19912;-72
2023/10/22 11:37:12;;;;;;;;;;;19.60;98.50;;;;;;5088670;28;19916;-72
2023/10/22 11:39:38;;;;;;;;;;;19.50;98.30;;;;;;5094124;28;19916;-72
2023/10/22 11:42:07;;;;;;;;;;;19.40;98.20;;;;;;5092612;28;20270;-72
2023/10/22 11:44:33;;;;;;;;;;;19.40;98.10;;;;;;5081584;28;19918;-72
2023/10/22 11:47:21;;;;;;;;;;;19.40;98.20;;;;;;5079788;28;19923;-81
2023/10/22 11:49:48;;;;;;;;;;;19.50;98.60;;;;;;5081340;28;19912;-79
2023/10/22 11:52:17;;;;;;;;;;;19.60;98.60;;;;;;5115522;28;20042;-80
2023/10/22 11:54:48;;;;;;;;;;;19.50;98.80;;;;;;5091983;28;19985;-78
2023/10/22 11:57:14;;;;;;;;;;;19.60;98.60;;;;;;5093303;28;21520;-80
2023/10/22 11:59:41;;;;;;;;;;;19.60;98.60;;;;;;5123695;28;19908;-81
2023/10/22 12:02:09;;;;;;;;;;;19.70;98.40;;;;;;5079683;28;19909;-78
2023/10/22 12:04:36;;;;;;;;;;;19.80;98.40;;;;;;5089456;28;20395;-79
2023/10/22 12:07:03;;;;;;;;;;;19.80;97.50;;;;;;5082366;28;20382;-79
2023/10/22 12:09:29;;;;;;;;;;;19.80;97.50;;;;;;5118365;28;19987;-79
2023/10/22 12:11:54;;;;;;;;;;;19.80;97.70;;;;;;5077545;28;19943;-77
2023/10/22 12:14:20;;;;;;;;;;;19.90;97.70;;;;;;5079862;28;19916;-79
2023/10/22 12:16:46;;;;;;;;;;;19.90;97.50;;;;;;5073169;28;19912;-77
2023/10/22 12:19:12;;;;;;;;;;;19.90;97.10;;;;;;5078426;28;20635;-79
2023/10/22 12:21:37;;;;;;;;;;;20.00;97.10;;;;;;5063510;28;20007;-72
2023/10/22 12:24:03;;;;;;;;;;;19.90;96.80;;;;;;5056887;28;20313;-74
2023/10/22 12:26:29;;;;;;;;;;;20.00;96.80;;;;;;5060205;28;20016;-72
2023/10/22 12:28:54;;;;;;;;;;;19.90;96.80;;;;;;5055574;28;19916;-72
2023/10/22 12:31:20;;;;;;;;;;;19.90;96.60;;;;;;5059527;28;19913;-73
2023/10/22 12:33:45;;;;;;;;;;;20.00;96.60;;;;;;5054825;28;20006;-74
2023/10/22 12:36:12;;;;;;;;;;;20.10;96.20;;;;;;5058903;28;20050;-72
2023/10/22 12:38:38;;;;;;;;;;;20.10;95.60;;;;;;5059198;28;20011;-72
2023/10/22 12:41:03;;;;;;;;;;;20.20;95.40;;;;;;5060395;28;20632;-72
2023/10/22 12:43:29;;;;;;;;;;;20.40;95.00;;;;;;5060031;28;19912;-74
2023/10/22 12:45:55;;;;;;;;;;;20.50;94.90;;;;;;5057309;28;19908;-73
2023/10/22 12:48:21;;;;;;;;;;;20.60;95.00;;;;;;5058570;28;19916;-74
2023/10/22 12:50:47;;;;;;;;;;;20.60;94.40;;;;;;5054173;28;20023;-74
2023/10/22 12:53:13;;;;;;;;;;;20.60;94.30;;;;;;5059036;28;19913;-73
2023/10/22 12:55:38;;;;;;;;;;;20.70;94.40;;;;;;5064624;28;19939;-74
2023/10/22 12:58:04;;;;;;;;;;;20.80;93.50;;;;;;5061046;28;19913;-73
2023/10/22 13:00:30;;;;;;;;;;;20.70;93.10;;;;;;5058855;28;19915;-73
2023/10/22 13:02:56;;;;;;;;;;;20.60;93.70;;;;;;5058754;28;19919;-72
2023/10/22 13:05:22;;;;;;;;;;;20.60;93.50;;;;;;5080709;28;20069;-74
2023/10/22 13:07:48;;;;;;;;;;;20.50;93.60;;;;;;5056505;28;19955;-75
2023/10/22 13:10:14;;;;;;;;;;;20.30;93.50;;;;;;5056965;28;20062;-74
2023/10/22 13:12:39;;;;;;;;;;;20.10;94.00;;;;;;5060287;28;20335;-71
2023/10/22 13:15:06;;;;;;;;;;;19.90;94.40;;;;;;5060744;28;19962;-72
2023/10/22 13:17:35;;;;;;;;;;;19.70;94.70;;;;;;5055066;28;19935;-71
2023/10/22 13:20:05;;;;;;;;;;;19.50;94.70;;;;;;5060746;28;20352;-72
2023/10/22 13:22:32;;;;;;;;;;;19.40;95.00;;;;;;5056120;28;19908;-72
2023/10/22 13:24:58;;;;;;;;;;;19.40;95.10;;;;;;5057592;28;20412;-72
2023/10/22 13:27:24;;;;;;;;;;;19.30;95.50;;;;;;5058026;28;20039;-72
2023/10/22 13:29:49;;;;;;;;;;;19.20;95.40;;;;;;5053054;28;19923;-72
2023/10/22 13:32:15;;;;;;;;;;;19.30;95.70;;;;;;5055201;28;20094;-72
2023/10/22 13:34:43;;;;;;;;;;;19.30;95.50;;;;;;5058674;28;19912;-71
2023/10/22 13:37:08;;;;;;;;;;;19.30;95.50;;;;;;5059230;28;20516;-72
2023/10/22 13:39:34;;;;;;;;;;;19.30;95.30;;;;;;5059350;28;19908;-72
2023/10/22 13:41:59;;;;;;;;;;;19.20;95.50;;;;;;5056509;28;19919;-72
2023/10/22 13:44:25;;;;;;;;;;;19.10;95.70;;;;;;5057137;28;19976;-72
2023/10/22 13:46:50;;;;;;;;;;;19.10;96.00;;;;;;5057419;28;19924;-73
2023/10/22 13:49:16;;;;;;;;;;;19.00;95.80;;;;;;5056193;28;20306;-72
2023/10/22 13:51:41;;;;;;;;;;;18.80;96.30;;;;;;5057696;28;19908;-73
2023/10/22 13:54:08;;;;;;;;;;;18.80;96.60;;;;;;5056747;28;20399;-72
2023/10/22 13:56:34;;;;;;;;;;;18.80;96.80;;;;;;5057632;28;19912;-72
2023/10/22 13:59:00;;;;;;;;;;;18.80;96.60;;;;;;5059369;28;19912;-73
2023/10/22 14:01:25;;;;;;;;;;;19.00;96.30;;;;;;5057623;28;20480;-72
2023/10/22 14:03:51;;;;;;;;;;;19.10;96.20;;;;;;5052497;28;19912;-73
2023/10/22 14:06:16;;;;;;;;;;;19.20;96.10;;;;;;5055495;28;19970;-72
2023/10/22 14:08:42;;;;;;;;;;;19.30;95.90;;;;;;5057150;28;20388;-73
2023/10/22 14:11:08;;;;;;;;;;;19.40;95.80;;;;;;5056024;28;20291;-72
2023/10/22 14:13:33;;;;;;;;;;;19.40;95.70;;;;;;5056047;28;19951;-72